KVKS/VKS METAR and TAF weather

Enter ICAO airport designator
Station Type Date Time Source
KVKS METAR 2019/10/15 17:10 UTC NOAA

KVKS 151710Z AUTO 00000KT 1 1/4SM BR 20/20 A2997 RMK A01 VIS 1/2V2 1/2


Station Type Date Time Source
KVKS Decoded METAR 2019/10/15 17:10 UTC NOAA

Vicksburg Municipal, MS, United States (KVKS) 32-14N 090-56W
Oct 15, 2019 - 01:10 PM EDT / 2019.10.15 1710 UTC
Wind: Calm:0
Visibility: 1 1/4 mile(s):0
Weather: mist
Temperature: 68 F (20 C)
Dew Point: 68 F (20 C)
Relative Humidity: 100%
Pressure (altimeter): 29.97 in. Hg (1014 hPa)
ob: KVKS 151710Z AUTO 00000KT 1 1/4SM BR 20/20 A2997 RMK A01 VIS 1/2V2 1/2
cycle: 17

Station Type Date Time Source
KVKS TAF UTC NOAA

Error!

Example: see airport list